Time;durP1;ratioP1;P1;durP2;ratioP2;P2;SDS_P1;SDS_P2;PMS_P1;PMS_P2;Temp;Humidity;BMP_temperature;BMP_pressure;BME280_temperature;BME280_humidity;BME280_pressure;Samples;Min_cycle;Max_cycle;Signal;HPM_P1;HPM_P2
2023/10/23 00:00:07;;;;;;;18.48;8.10;;;;;;;12.28;78.91;100056.97;4919398;28;96726;-72
2023/10/23 00:02:38;;;;;;;19.38;7.70;;;;;;;12.32;79.26;100055.91;4948036;28;96950;-72
2023/10/23 00:05:05;;;;;;;12.23;6.88;;;;;;;12.32;79.31;100052.41;4918432;28;97438;-72
2023/10/23 00:07:30;;;;;;;16.70;8.45;;;;;;;12.37;78.56;100068.84;4952385;28;98244;-71
2023/10/23 00:09:56;;;;;;;14.75;8.52;;;;;;;12.38;78.90;100062.66;4953076;28;96716;-72
2023/10/23 00:12:22;;;;;;;18.10;7.55;;;;;;;12.40;78.25;100060.81;4935592;28;97039;-71
2023/10/23 00:14:48;;;;;;;16.00;7.88;;;;;;;12.42;78.57;100062.47;4936565;28;101636;-72
2023/10/23 00:17:13;;;;;;;18.88;8.30;;;;;;;12.44;78.26;100063.22;4939093;28;97927;-72
2023/10/23 00:19:39;;;;;;;16.40;8.35;;;;;;;12.45;78.03;100062.31;4956750;28;96747;-72
2023/10/23 00:22:04;;;;;;;15.52;7.85;;;;;;;12.43;79.00;100060.69;4939116;28;97359;-72
2023/10/23 00:24:30;;;;;;;16.48;7.80;;;;;;;12.42;78.98;100065.09;4955945;28;97324;-72
2023/10/23 00:26:55;;;;;;;17.15;8.13;;;;;;;12.31;79.48;100040.19;4938515;28;99282;-72
2023/10/23 00:29:21;;;;;;;18.48;8.85;;;;;;;12.39;79.40;100053.81;4938577;28;96817;-71
2023/10/23 00:31:46;;;;;;;13.13;7.22;;;;;;;12.39;79.49;100067.88;4938969;28;97060;-71
2023/10/23 00:34:12;;;;;;;17.65;10.05;;;;;;;12.35;79.22;100055.75;4956581;28;97428;-72
2023/10/23 00:36:37;;;;;;;21.75;10.13;;;;;;;12.37;79.23;100059.19;4922297;28;101728;-72
2023/10/23 00:39:03;;;;;;;20.92;10.13;;;;;;;12.12;79.44;100004.16;4922867;28;96808;-72
2023/10/23 00:41:29;;;;;;;16.55;8.85;;;;;;;12.37;79.54;100047.81;4938530;28;96828;-72
2023/10/23 00:43:54;;;;;;;13.02;8.20;;;;;;;12.40;80.10;100051.13;4934130;28;101780;-72
2023/10/23 00:46:21;;;;;;;19.27;8.88;;;;;;;12.26;79.60;100039.53;4938319;28;97910;-72
2023/10/23 00:48:47;;;;;;;16.98;8.80;;;;;;;12.31;80.03;100051.56;4902520;28;97926;-71
2023/10/23 00:51:14;;;;;;;14.88;7.13;;;;;;;12.35;79.90;100055.75;4936003;28;97188;-74
2023/10/23 00:53:41;;;;;;;13.32;7.40;;;;;;;12.32;80.21;100050.63;4955537;28;98023;-72
2023/10/23 00:56:09;;;;;;;14.30;7.57;;;;;;;12.32;80.54;100055.91;4955688;28;97706;-71
2023/10/23 00:58:39;;;;;;;19.50;8.68;;;;;;;12.36;79.99;100053.97;4938511;28;96856;-72
2023/10/23 01:01:06;;;;;;;16.70;9.25;;;;;;;12.27;80.00;100039.44;4938224;28;96806;-77
2023/10/23 01:03:32;;;;;;;17.75;9.07;;;;;;;12.32;80.43;100047.16;4938058;28;98126;-72
2023/10/23 01:05:58;;;;;;;17.60;8.85;;;;;;;12.27;80.38;100038.59;4921924;28;101325;-77
2023/10/23 01:08:24;;;;;;;13.38;8.25;;;;;;;12.12;80.49;100006.78;4937976;28;97649;-72
2023/10/23 01:10:49;;;;;;;15.25;8.07;;;;;;;12.34;80.51;100042.69;4938116;28;96820;-72
2023/10/23 01:13:15;;;;;;;17.55;7.90;;;;;;;12.14;80.17;100007.59;4937099;28;101357;-72
2023/10/23 01:15:40;;;;;;;20.35;7.90;;;;;;;12.33;80.43;100030.44;4937876;28;97805;-71
2023/10/23 01:18:06;;;;;;;17.13;7.22;;;;;;;12.25;80.38;100033.44;4937351;28;97903;-72
2023/10/23 01:20:32;;;;;;;18.05;7.93;;;;;;;12.24;80.47;100032.53;4921467;28;96898;-71
2023/10/23 01:22:58;;;;;;;19.25;8.23;;;;;;;12.10;81.15;99995.50;4937995;28;97595;-72
2023/10/23 01:25:24;;;;;;;19.45;9.18;;;;;;;12.28;80.21;100027.16;4921461;28;97934;-72
2023/10/23 01:27:50;;;;;;;21.58;8.75;;;;;;;12.07;80.26;99995.66;4937342;28;97412;-72
2023/10/23 01:30:15;;;;;;;15.85;8.45;;;;;;;12.09;81.03;99998.19;4938193;28;98049;-71
2023/10/23 01:32:41;;;;;;;14.20;7.78;;;;;;;12.08;80.75;99997.34;4937759;28;97888;-72
2023/10/23 01:35:07;;;;;;;19.15;7.10;;;;;;;12.22;80.59;100028.31;4921201;28;101126;-72
2023/10/23 01:37:32;;;;;;;13.15;6.72;;;;;;;12.22;80.26;100018.63;4937171;28;97228;-71
2023/10/23 01:39:57;;;;;;;15.27;7.53;;;;;;;12.14;80.22;100015.47;4921208;28;98717;-71
2023/10/23 01:42:28;;;;;;;15.23;8.00;;;;;;;12.26;79.98;100029.84;4937042;28;97473;-78
2023/10/23 01:44:55;;;;;;;13.63;7.30;;;;;;;12.26;80.28;100021.13;4921843;28;101169;-72
2023/10/23 01:47:21;;;;;;;15.20;7.72;;;;;;;12.21;80.10;100024.78;4937839;28;96772;-71
2023/10/23 01:49:47;;;;;;;16.33;8.00;;;;;;;12.26;80.55;100023.75;4930316;28;96969;-75
2023/10/23 01:52:12;;;;;;;12.38;6.93;;;;;;;12.26;80.44;100032.50;4917885;28;97954;-71
2023/10/23 01:54:38;;;;;;;15.43;6.53;;;;;;;12.27;79.76;100028.06;4955025;28;98641;-71
2023/10/23 01:57:03;;;;;;;12.15;6.93;;;;;;;12.20;80.59;100032.78;4905238;28;97417;-73
2023/10/23 01:59:29;;;;;;;14.32;7.15;;;;;;;12.24;80.67;100039.59;4937704;28;96886;-73
2023/10/23 02:01:55;;;;;;;18.98;7.45;;;;;;;12.22;80.31;100034.41;4935017;28;101343;-72
2023/10/23 02:04:20;;;;;;;15.65;8.13;;;;;;;12.24;80.66;100034.31;4954659;28;97450;-71
2023/10/23 02:06:46;;;;;;;14.55;7.30;;;;;;;12.07;80.54;100010.56;4936936;28;96829;-71
2023/10/23 02:09:12;;;;;;;13.20;6.95;;;;;;;12.24;80.35;100039.59;4933192;28;96993;-76
2023/10/23 02:11:38;;;;;;;18.05;7.07;;;;;;;12.21;80.93;100040.59;4933247;28;99125;-72
2023/10/23 02:14:03;;;;;;;11.00;6.60;;;;;;;12.18;80.85;100042.50;4953467;28;98567;-73
2023/10/23 02:16:29;;;;;;;10.48;6.30;;;;;;;12.06;80.73;100014.97;4920688;28;97160;-72
2023/10/23 02:18:55;;;;;;;16.10;7.22;;;;;;;12.23;80.68;100038.75;4921843;28;97539;-72
2023/10/23 02:21:20;;;;;;;10.55;6.60;;;;;;;12.28;80.73;100045.59;4946487;28;98110;-72
2023/10/23 02:23:46;;;;;;;14.88;7.80;;;;;;;12.06;81.00;100046.53;4920532;28;99705;-72
2023/10/23 02:26:11;;;;;;;14.38;7.30;;;;;;;11.83;80.35;100013.31;4953818;28;96768;-72
2023/10/23 02:28:37;;;;;;;16.00;7.25;;;;;;;11.79;79.90;99990.72;4920730;28;96893;-72
2023/10/23 02:31:03;;;;;;;15.18;6.40;;;;;;;11.99;80.44;100018.81;4954291;28;97962;-72
2023/10/23 02:33:30;;;;;;;11.85;7.25;;;;;;;12.05;80.86;100036.09;4936734;28;98604;-72
2023/10/23 02:35:55;;;;;;;12.23;6.70;;;;;;;12.11;80.60;100046.34;4936680;28;97125;-72
2023/10/23 02:38:21;;;;;;;14.50;6.97;;;;;;;11.89;80.64;100030.66;4946888;28;97044;-75
2023/10/23 02:40:53;;;;;;;13.38;7.35;;;;;;;11.90;80.72;100061.31;4942830;28;98104;-72
2023/10/23 02:43:19;;;;;;;9.88;7.00;;;;;;;11.89;80.45;100068.31;4919485;28;97987;-72
2023/10/23 02:45:45;;;;;;;16.27;6.88;;;;;;;11.79;81.21;100065.22;4936965;28;97181;-72
2023/10/23 02:48:11;;;;;;;12.18;6.60;;;;;;;11.81;80.82;100057.28;4918571;28;97197;-72
2023/10/23 02:50:36;;;;;;;14.90;6.95;;;;;;;11.94;80.96;100068.97;4932796;28;98483;-72
2023/10/23 02:53:02;;;;;;;12.70;7.78;;;;;;;12.04;80.68;100071.19;4924608;28;100929;-71
2023/10/23 02:55:27;;;;;;;16.88;7.22;;;;;;;12.04;80.64;100068.56;4936655;28;97025;-71
2023/10/23 02:57:53;;;;;;;17.80;6.93;;;;;;;11.78;80.38;100039.00;4953897;28;96827;-72
2023/10/23 03:00:20;;;;;;;19.73;6.70;;;;;;;12.01;79.70;100077.44;4936403;28;97462;-71
2023/10/23 03:02:46;;;;;;;11.98;6.90;;;;;;;11.91;80.48;100052.47;4936046;28;97901;-71
2023/10/23 03:05:13;;;;;;;12.98;6.15;;;;;;;12.04;79.98;100079.09;4936098;28;96862;-73
2023/10/23 03:07:38;;;;;;;14.85;6.47;;;;;;;12.09;79.68;100091.13;4919163;28;97015;-72
2023/10/23 03:10:04;;;;;;;15.18;5.68;;;;;;;12.06;79.56;100088.63;4919962;28;98492;-72
2023/10/23 03:12:30;;;;;;;13.23;6.03;;;;;;;12.09;79.29;100101.66;4935917;28;98429;-72
2023/10/23 03:14:55;;;;;;;19.08;6.15;;;;;;;12.08;79.28;100099.09;4919443;28;96742;-72
2023/10/23 03:17:21;;;;;;;13.73;6.65;;;;;;;12.10;79.67;100106.00;4922346;28;97130;-71
2023/10/23 03:19:46;;;;;;;13.65;6.00;;;;;;;12.00;79.30;100076.59;4922278;28;101372;-72
2023/10/23 03:22:12;;;;;;;11.90;5.57;;;;;;;12.02;79.72;100084.44;4916118;28;101042;-72
2023/10/23 03:24:38;;;;;;;21.75;6.97;;;;;;;12.18;79.33;100103.03;4936321;28;96730;-72
2023/10/23 03:27:04;;;;;;;16.42;7.00;;;;;;;12.18;79.23;100105.66;4919139;28;97330;-72
2023/10/23 03:29:30;;;;;;;14.73;6.05;;;;;;;12.17;78.98;100103.97;4951558;28;98006;-71
2023/10/23 03:31:55;;;;;;;13.45;5.80;;;;;;;12.23;79.35;100108.94;4919909;28;99436;-72
2023/10/23 03:34:24;;;;;;;18.17;6.75;;;;;;;12.10;79.71;100087.59;4933492;28;97209;-72
2023/10/23 03:36:49;;;;;;;12.77;6.65;;;;;;;12.22;78.92;100112.50;4916692;28;97552;-72
2023/10/23 03:39:15;;;;;;;13.93;6.95;;;;;;;12.21;79.36;100108.16;4944194;28;98517;-76
2023/10/23 03:41:42;;;;;;;17.17;7.32;;;;;;;12.03;79.68;100082.66;4948434;28;97407;-76
2023/10/23 03:44:08;;;;;;;19.85;6.85;;;;;;;12.23;79.21;100109.78;4939917;28;96894;-72
2023/10/23 03:46:33;;;;;;;13.23;6.38;;;;;;;12.20;79.17;100106.44;4927175;28;97035;-72
2023/10/23 03:48:59;;;;;;;19.23;6.88;;;;;;;12.20;78.84;100114.34;4935448;28;99748;-71
2023/10/23 03:51:25;;;;;;;16.73;5.82;;;;;;;12.21;78.72;100109.00;4938347;28;97844;-72
2023/10/23 03:53:50;;;;;;;15.73;7.10;;;;;;;12.26;79.15;100108.81;4952396;28;96773;-73
2023/10/23 03:56:16;;;;;;;16.70;6.57;;;;;;;12.11;78.94;100106.88;4939585;28;97721;-72
2023/10/23 03:58:46;;;;;;;16.13;6.05;;;;;;;12.07;79.38;100116.66;4956131;28;97483;-72
2023/10/23 04:01:12;;;;;;;12.57;6.10;;;;;;;12.02;79.17;100097.59;4938716;28;97306;-72
2023/10/23 04:03:37;;;;;;;19.95;7.18;;;;;;;11.97;79.25;100104.81;4952747;28;97375;-73
2023/10/23 04:06:04;;;;;;;11.35;6.05;;;;;;;11.89;79.67;100099.03;4938194;28;97052;-72
2023/10/23 04:08:29;;;;;;;19.40;6.85;;;;;;;11.87;79.93;100109.63;4938972;28;97421;-72
2023/10/23 04:10:55;;;;;;;20.02;7.07;;;;;;;11.99;79.96;100109.09;4945809;28;97435;-77
2023/10/23 04:13:20;;;;;;;14.43;6.53;;;;;;;12.06;79.90;100100.94;4946765;28;96870;-72
2023/10/23 04:15:59;;;;;;;12.70;7.03;;;;;;;12.04;79.79;100084.34;4947517;28;97048;-73
2023/10/23 04:18:25;;;;;;;13.38;6.75;;;;;;;12.19;80.49;100107.38;4955321;28;97466;-73
2023/10/23 04:21:02;;;;;;;15.10;6.53;;;;;;;12.20;80.07;100107.31;4936645;28;97337;-74
2023/10/23 04:23:27;;;;;;;13.52;6.75;;;;;;;12.21;80.79;100103.72;4950446;28;97136;-73
2023/10/23 04:25:54;;;;;;;19.33;7.45;;;;;;;12.15;80.77;100087.38;4954990;28;96969;-73
2023/10/23 04:28:20;;;;;;;21.08;6.53;;;;;;;12.28;79.95;100114.03;4945040;28;98176;-72
2023/10/23 04:30:45;;;;;;;10.95;6.40;;;;;;;12.28;80.26;100114.88;4953899;28;98149;-74
2023/10/23 04:33:11;;;;;;;12.35;6.63;;;;;;;12.27;80.40;100114.91;4954211;28;96813;-75
2023/10/23 04:35:36;;;;;;;11.93;6.88;;;;;;;12.30;81.16;100115.63;4942071;28;96870;-75
2023/10/23 04:38:02;;;;;;;14.65;7.50;;;;;;;12.27;80.41;100107.88;4932319;28;97984;-73
2023/10/23 04:40:28;;;;;;;16.98;8.18;;;;;;;12.30;80.64;100112.16;4929188;28;99080;-73
2023/10/23 04:42:53;;;;;;;13.60;6.50;;;;;;;12.25;80.91;100107.13;4941042;28;97009;-74
2023/10/23 04:45:19;;;;;;;18.80;7.60;;;;;;;12.16;81.08;100091.75;4950333;28;97990;-74
2023/10/23 04:47:44;;;;;;;20.75;8.43;;;;;;;12.24;80.90;100118.53;4951716;28;98086;-75
2023/10/23 04:50:12;;;;;;;21.52;7.10;;;;;;;12.25;81.25;100125.53;4936747;28;97362;-72
2023/10/23 04:52:39;;;;;;;17.75;7.70;;;;;;;12.29;80.99;100118.34;4953776;28;96728;-73
2023/10/23 04:55:05;;;;;;;14.20;7.20;;;;;;;12.19;80.98;100105.59;4944858;28;97288;-76
2023/10/23 04:57:31;;;;;;;19.88;8.40;;;;;;;12.32;80.79;100123.47;4935885;28;100821;-75
2023/10/23 04:59:56;;;;;;;15.05;7.47;;;;;;;12.32;81.30;100129.59;4944968;28;97438;-73
2023/10/23 05:02:22;;;;;;;18.10;7.43;;;;;;;12.17;81.11;100101.31;4918318;28;97234;-72
2023/10/23 05:04:48;;;;;;;14.80;8.55;;;;;;;12.34;80.68;100130.38;4932460;28;96968;-87
2023/10/23 05:07:14;;;;;;;24.20;8.65;;;;;;;12.28;80.68;100117.50;4918632;28;100435;-76
2023/10/23 05:09:44;;;;;;;17.27;8.35;;;;;;;12.17;80.90;100099.53;4931984;28;101260;-81
2023/10/23 05:12:10;;;;;;;17.30;9.65;;;;;;;12.42;80.95;100143.19;4930457;28;98128;-82
2023/10/23 05:14:35;;;;;;;21.80;9.32;;;;;;;12.37;80.93;100139.94;4920287;28;97677;-82
2023/10/23 05:17:01;;;;;;;23.98;9.27;;;;;;;12.24;81.22;100118.53;4908057;28;99246;-80
2023/10/23 05:19:27;;;;;;;16.63;8.60;;;;;;;12.38;81.10;100152.16;4927606;28;97395;-81
2023/10/23 05:21:52;;;;;;;24.95;9.18;;;;;;;12.36;80.79;100151.34;4939468;28;97181;-81
2023/10/23 05:24:18;;;;;;;21.40;11.32;;;;;;;12.40;80.57;100155.59;4918379;28;97343;-81
2023/10/23 05:26:43;;;;;;;19.58;10.75;;;;;;;12.46;81.05;100156.16;4918881;28;101217;-81
2023/10/23 05:29:09;;;;;;;26.25;10.63;;;;;;;12.40;81.10;100145.06;4919063;28;97450;-81
2023/10/23 05:31:34;;;;;;;15.32;8.32;;;;;;;12.43;80.96;100155.44;4953725;28;97138;-81
2023/10/23 05:34:00;;;;;;;15.10;8.40;;;;;;;12.46;80.74;100165.84;4919626;28;97189;-81
2023/10/23 05:36:25;;;;;;;16.88;8.85;;;;;;;12.39;80.59;100159.13;4934939;28;100956;-81
2023/10/23 05:38:51;;;;;;;17.60;7.72;;;;;;;12.48;79.90;100171.91;4928590;28;97569;-82
2023/10/23 05:41:16;;;;;;;14.55;7.90;;;;;;;12.47;80.08;100159.63;4931138;28;97003;-81
2023/10/23 05:43:43;;;;;;;14.70;6.95;;;;;;;12.54;80.13;100171.63;4918979;28;96921;-80
2023/10/23 05:46:09;;;;;;;14.02;6.65;;;;;;;12.53;79.94;100172.53;4941033;28;97394;-77
2023/10/23 05:48:36;;;;;;;16.02;6.65;;;;;;;12.53;79.36;100172.53;4935592;28;97517;-82
2023/10/23 05:51:04;;;;;;;19.42;6.80;;;;;;;12.39;79.52;100151.22;4920189;28;96903;-71
2023/10/23 05:53:31;;;;;;;15.30;6.93;;;;;;;12.50;79.43;100174.44;4952904;28;97755;-71
2023/10/23 05:56:03;;;;;;;13.07;5.55;;;;;;;12.54;78.55;100182.16;4918862;28;101713;-72
2023/10/23 05:58:30;;;;;;;14.95;5.38;;;;;;;12.56;78.74;100180.28;4919444;28;97892;-70
2023/10/23 06:00:56;;;;;;;12.57;5.72;;;;;;;12.63;78.14;100181.75;4934762;28;98205;-70
2023/10/23 06:03:21;;;;;;;16.90;5.82;;;;;;;12.63;78.18;100184.38;4952069;28;96822;-73
2023/10/23 06:05:47;;;;;;;14.88;5.45;;;;;;;12.56;77.69;100169.75;4913697;28;103438;-71
2023/10/23 06:08:12;;;;;;;15.32;5.78;;;;;;;12.68;77.86;100190.31;4950593;28;97526;-71
2023/10/23 06:10:42;;;;;;;12.65;5.78;;;;;;;12.53;77.49;100166.41;4933580;28;96722;-71
2023/10/23 06:13:07;;;;;;;11.57;5.00;;;;;;;12.68;77.55;100189.41;4933034;28;97590;-72
2023/10/23 06:15:33;;;;;;;13.05;6.63;;;;;;;12.71;76.29;100191.06;4949828;28;97384;-71
2023/10/23 06:17:58;;;;;;;15.32;5.88;;;;;;;12.56;76.75;100167.13;4933268;28;97671;-73
2023/10/23 06:20:24;;;;;;;11.75;4.90;;;;;;;12.69;76.37;100192.00;4902570;28;97151;-72
2023/10/23 06:22:49;;;;;;;11.60;5.57;;;;;;;12.78;76.36;100198.63;4933519;28;97434;-70
2023/10/23 06:25:15;;;;;;;14.95;5.15;;;;;;;12.71;76.27;100176.13;4916663;28;97486;-71
2023/10/23 06:27:40;;;;;;;11.82;5.25;;;;;;;12.94;76.55;100201.41;4913159;28;101226;-71
2023/10/23 06:30:06;;;;;;;12.85;4.97;;;;;;;13.07;75.99;100197.31;4947670;28;97403;-69
2023/10/23 06:32:35;;;;;;;15.68;5.72;;;;;;;13.14;75.62;100179.41;4949422;28;97252;-71
2023/10/23 06:35:01;;;;;;;8.65;5.03;;;;;;;13.49;74.92;100204.13;4950837;28;97612;-70
2023/10/23 06:37:26;;;;;;;15.13;6.05;;;;;;;13.50;75.13;100199.75;4952503;28;98173;-71
2023/10/23 06:39:52;;;;;;;17.60;5.13;;;;;;;13.56;75.66;100213.47;4935230;28;96883;-71
2023/10/23 06:42:17;;;;;;;17.42;5.80;;;;;;;13.77;75.45;100213.38;4924421;28;96912;-70
2023/10/23 06:44:43;;;;;;;12.80;4.80;;;;;;;13.67;74.54;100167.25;4946515;28;97468;-70
2023/10/23 06:47:10;;;;;;;16.55;5.65;;;;;;;14.06;74.28;100211.94;4946956;28;97423;-71
2023/10/23 06:49:37;;;;;;;13.90;5.38;;;;;;;13.71;74.73;100164.41;4942624;28;98284;-70
2023/10/23 06:52:04;;;;;;;11.25;5.10;;;;;;;13.88;75.19;100212.84;4941993;28;96912;-69
2023/10/23 06:54:29;;;;;;;16.85;5.20;;;;;;;13.61;76.05;100186.03;4942088;28;97676;-71
2023/10/23 06:56:55;;;;;;;13.88;5.85;;;;;;;13.54;76.74;100188.09;4922861;28;98398;-69
2023/10/23 06:59:20;;;;;;;13.15;5.72;;;;;;;13.49;77.24;100200.66;4941911;28;96928;-69
2023/10/23 07:01:46;;;;;;;14.98;5.47;;;;;;;13.57;77.33;100222.25;4921649;28;96933;-69
2023/10/23 07:04:11;;;;;;;18.75;5.97;;;;;;;13.51;77.14;100212.00;4940819;28;97685;-72
2023/10/23 07:06:37;;;;;;;16.52;5.25;;;;;;;13.58;76.59;100218.66;4930529;28;97624;-70
2023/10/23 07:09:04;;;;;;;12.15;5.85;;;;;;;13.80;76.48;100229.91;4946382;28;96917;-69
2023/10/23 07:11:29;;;;;;;16.58;5.95;;;;;;;13.81;75.60;100192.03;4948724;28;97107;-69
2023/10/23 07:13:55;;;;;;;11.68;5.22;;;;;;;13.95;76.26;100224.78;4948873;28;97953;-69
2023/10/23 07:16:22;;;;;;;10.63;4.78;;;;;;;13.74;76.12;100200.34;4937320;28;97463;-70
2023/10/23 07:18:47;;;;;;;13.85;6.22;;;;;;;13.74;76.07;100200.34;4931430;28;96890;-70
2023/10/23 07:21:13;;;;;;;14.85;5.95;;;;;;;13.91;76.40;100231.16;4949234;28;96873;-70
2023/10/23 07:23:38;;;;;;;13.13;4.88;;;;;;;13.66;76.55;100181.38;4924762;28;97587;-69
2023/10/23 07:26:10;;;;;;;15.63;5.03;;;;;;;14.16;75.46;100229.00;4916294;28;99394;-69
2023/10/23 07:28:38;;;;;;;16.27;4.85;;;;;;;14.60;74.18;100231.22;4915451;28;97199;-70
2023/10/23 07:31:05;;;;;;;12.57;5.43;;;;;;;14.98;72.27;100215.09;4935855;28;97035;-69
2023/10/23 07:33:31;;;;;;;11.85;4.32;;;;;;;15.23;71.01;100227.84;4920592;28;97477;-69
2023/10/23 07:36:07;;;;;;;12.32;4.40;;;;;;;15.06;71.09;100210.25;4918574;28;98115;-69
2023/10/23 07:38:33;;;;;;;9.98;4.70;;;;;;;15.34;70.49;100222.81;4915873;28;97196;-69
2023/10/23 07:41:00;;;;;;;14.18;5.47;;;;;;;15.74;69.66;100233.00;4926736;28;97334;-74
2023/10/23 07:43:27;;;;;;;10.73;4.18;;;;;;;17.45;64.32;100219.13;4912820;28;101171;-70
2023/10/23 07:45:53;;;;;;;11.02;4.50;;;;;;;17.31;63.99;100197.94;4925193;28;100937;-70
2023/10/23 07:48:23;;;;;;;13.80;4.70;;;;;;;17.16;64.12;100227.16;4915800;28;98677;-69
2023/10/23 07:50:49;;;;;;;16.27;4.70;;;;;;;16.88;64.95;100222.69;4936838;28;97994;-69
2023/10/23 07:53:15;;;;;;;13.15;5.47;;;;;;;16.70;65.02;100213.22;4948900;28;97505;-72
2023/10/23 07:55:40;;;;;;;13.57;5.40;;;;;;;17.56;62.96;100207.81;4929914;28;97101;-72
2023/10/23 07:58:06;;;;;;;10.40;4.15;;;;;;;17.57;62.31;100217.47;4929104;28;96885;-81
2023/10/23 08:00:31;;;;;;;13.25;4.20;;;;;;;17.53;62.58;100231.91;4918518;28;97317;-72
2023/10/23 08:02:57;;;;;;;9.95;4.72;;;;;;;17.49;61.84;100231.25;4948647;28;97405;-74
2023/10/23 08:05:23;;;;;;;17.55;4.47;;;;;;;17.48;62.29;100240.16;4933132;28;97959;-76
2023/10/23 08:07:48;;;;;;;13.77;4.45;;;;;;;17.35;62.20;100234.78;4927041;28;97602;-73
2023/10/23 08:10:14;;;;;;;12.75;4.32;;;;;;;17.24;61.92;100234.59;4917235;28;96871;-73
2023/10/23 08:12:40;;;;;;;7.85;3.90;;;;;;;17.19;61.90;100237.56;4921813;28;101139;-85
2023/10/23 08:15:07;;;;;;;10.45;4.57;;;;;;;17.16;62.05;100235.09;4910539;28;101264;-80
2023/10/23 08:17:32;;;;;;;11.25;4.72;;;;;;;17.33;61.69;100235.81;4938939;28;96875;-75
2023/10/23 08:19:58;;;;;;;13.95;4.15;;;;;;;17.58;60.98;100212.06;4928643;28;97144;-75
2023/10/23 08:22:23;;;;;;;9.02;4.38;;;;;;;18.06;59.99;100233.75;4929364;28;101671;-75
2023/10/23 08:24:49;;;;;;;13.18;5.03;;;;;;;18.44;59.55;100234.75;4926865;28;101462;-75
2023/10/23 08:27:14;;;;;;;18.20;4.47;;;;;;;18.83;57.33;100207.28;4927709;28;96921;-76
2023/10/23 08:29:40;;;;;;;10.95;4.22;;;;;;;19.68;55.78;100215.38;4930397;28;97465;-76
2023/10/23 08:32:05;;;;;;;14.10;4.22;;;;;;;20.55;53.98;100230.16;4931578;28;97640;-76
2023/10/23 08:34:31;;;;;;;12.43;5.25;;;;;;;21.41;51.09;100223.41;4932974;28;97453;-72
2023/10/23 08:36:57;;;;;;;17.30;4.15;;;;;;;21.57;50.90;100227.50;4934991;28;96872;-72
2023/10/23 08:39:23;;;;;;;12.20;4.30;;;;;;;21.65;50.21;100233.06;4934922;28;96906;-72
2023/10/23 08:41:49;;;;;;;10.05;3.88;;;;;;;22.83;47.82;100228.47;4947412;28;97497;-76
2023/10/23 08:44:16;;;;;;;10.23;3.97;;;;;;;22.55;47.01;100227.34;4951921;28;97823;-75
2023/10/23 08:46:42;;;;;;;11.90;4.13;;;;;;;22.73;47.79;100216.91;4917242;28;96920;-76
2023/10/23 08:49:08;;;;;;;12.02;4.15;;;;;;;22.87;46.88;100211.19;4928309;28;97631;-76
2023/10/23 08:51:35;;;;;;;9.70;3.70;;;;;;;24.33;43.83;100224.88;4931619;28;101951;-76
2023/10/23 08:54:08;;;;;;;12.85;3.80;;;;;;;25.17;41.93;100208.03;4899088;28;100310;-78
2023/10/23 08:56:39;;;;;;;11.52;3.80;;;;;;;26.51;39.49;100209.88;4918273;28;96989;-77
2023/10/23 08:59:04;;;;;;;;;;;;;;;31.33;32.44;100209.53;4929982;28;97754;-76
2023/10/23 09:01:31;;;;;;;10.07;3.25;;;;;;;36.70;25.30;100186.75;4904633;28;101912;-77
2023/10/23 09:03:56;;;;;;;13.75;4.35;;;;;;;39.26;22.98;100193.31;4902006;28;100838;-78
2023/10/23 09:06:22;;;;;;;14.73;7.40;;;;;;;40.83;21.18;100207.28;4915208;28;97216;-77
2023/10/23 09:08:47;;;;;;;6.25;3.15;;;;;;;41.79;19.67;100194.91;4948290;28;97125;-77
2023/10/23 09:11:13;;;;;;;7.25;3.55;;;;;;;42.51;18.62;100194.41;4935033;28;101280;-78
2023/10/23 09:13:40;;;;;;;9.38;4.35;;;;;;;43.36;17.91;100187.91;4948611;28;97721;-79
2023/10/23 09:16:06;;;;;;;6.15;3.03;;;;;;;43.54;17.83;100186.59;4923062;28;97214;-79
2023/10/23 09:18:33;;;;;;;6.60;2.95;;;;;;;44.08;17.04;100185.28;4916866;28;96845;-79
2023/10/23 09:20:58;;;;;;;10.32;3.55;;;;;;;44.17;17.55;100183.59;4932822;28;97745;-79
2023/10/23 09:23:25;;;;;;;8.02;3.13;;;;;;;44.61;16.83;100194.03;4917077;28;97849;-79
2023/10/23 09:25:56;;;;;;;5.70;2.97;;;;;;;44.43;16.83;100182.47;4931519;28;98189;-79
2023/10/23 09:28:22;;;;;;;7.63;5.47;;;;;;;44.29;16.01;100186.88;4934028;28;96994;-80
2023/10/23 09:30:48;;;;;;;12.45;3.90;;;;;;;43.82;16.65;100183.31;4931990;28;98263;-81
2023/10/23 09:33:14;;;;;;;8.35;3.65;;;;;;;42.70;17.93;100186.50;4948054;28;98698;-80
2023/10/23 09:35:40;;;;;;;10.35;2.78;;;;;;;39.99;19.88;100190.84;4909349;28;97403;-80
2023/10/23 09:38:14;;;;;;;7.07;2.60;;;;;;;35.73;23.86;100191.75;4924202;28;97394;-80
2023/10/23 09:40:39;;;;;;;12.07;3.05;;;;;;;34.13;25.48;100185.91;4916243;28;99352;-77
2023/10/23 09:43:06;;;;;;;5.90;2.50;;;;;;;32.54;27.28;100179.84;4932343;28;98134;-81
2023/10/23 09:45:33;;;;;;;6.38;2.30;;;;;;;31.77;28.90;100179.59;4916417;28;97346;-77
2023/10/23 09:47:59;;;;;;;10.48;3.22;;;;;;;30.62;30.32;100190.19;4916186;28;97750;-80
2023/10/23 09:50:28;;;;;;;8.95;2.55;;;;;;;30.05;30.91;100191.56;4929598;28;97971;-77
2023/10/23 09:52:57;;;;;;;11.65;3.50;;;;;;;29.49;31.34;100188.19;4928812;28;97449;-79
2023/10/23 09:55:28;;;;;;;7.75;2.30;;;;;;;29.22;32.03;100197.63;4924830;28;97243;-77
2023/10/23 09:57:54;;;;;;;6.88;2.58;;;;;;;28.71;32.83;100176.38;4927421;28;97278;-78
2023/10/23 10:00:20;;;;;;;11.73;2.90;;;;;;;28.59;33.03;100193.91;4924895;28;97489;-77
2023/10/23 10:02:55;;;;;;;10.05;3.50;;;;;;;28.07;33.82;100199.69;4933826;28;97183;-77
2023/10/23 10:05:30;;;;;;;9.45;2.63;;;;;;;28.01;33.63;100201.19;4932855;28;97858;-77
2023/10/23 10:07:58;;;;;;;10.60;3.33;;;;;;;27.72;34.31;100194.41;4950584;28;97268;-77
2023/10/23 10:10:26;;;;;;;10.65;3.72;;;;;;;27.82;34.40;100191.59;4932662;28;101317;-78
2023/10/23 10:12:53;;;;;;;12.52;3.13;;;;;;;27.57;34.75;100187.97;4933685;28;97928;-77
2023/10/23 10:15:19;;;;;;;8.70;3.38;;;;;;;27.69;34.84;100178.56;4931912;28;97479;-82
2023/10/23 10:17:45;;;;;;;7.88;2.72;;;;;;;27.53;35.23;100175.84;4933568;28;97352;-77
2023/10/23 10:20:11;;;;;;;10.18;3.08;;;;;;;27.42;35.87;100187.75;4916328;28;100962;-77
2023/10/23 10:22:42;;;;;;;12.23;3.05;;;;;;;27.21;35.31;100152.34;4934630;28;98439;-78
2023/10/23 10:25:09;;;;;;;9.40;2.95;;;;;;;27.07;35.97;100169.94;4918872;28;96795;-78
2023/10/23 10:27:35;;;;;;;10.93;3.13;;;;;;;26.74;35.94;100171.66;4915328;28;97486;-76
2023/10/23 10:30:04;;;;;;;9.55;2.55;;;;;;;26.36;36.80;100169.22;4933183;28;98516;-76
2023/10/23 10:32:31;;;;;;;15.25;3.40;;;;;;;25.95;36.99;100157.31;4950168;28;98071;-78
2023/10/23 10:34:59;;;;;;;7.13;3.10;;;;;;;25.91;38.69;100175.56;4932697;28;96771;-76
2023/10/23 10:37:28;;;;;;;8.02;2.47;;;;;;;25.70;38.00;100172.31;4931883;28;97396;-77
2023/10/23 10:39:56;;;;;;;9.80;2.95;;;;;;;25.55;39.17;100180.09;4920233;28;98607;-78
2023/10/23 10:42:29;;;;;;;9.75;3.13;;;;;;;25.29;39.42;100151.25;4912625;28;101037;-76
2023/10/23 10:45:02;;;;;;;20.17;2.97;;;;;;;25.16;39.13;100169.59;4931024;28;97310;-77
2023/10/23 10:47:52;;;;;;;9.65;2.95;;;;;;;24.77;39.91;100148.25;4948572;28;96953;-77
2023/10/23 10:50:32;;;;;;;12.27;3.57;;;;;;;24.60;39.54;100167.81;4949145;28;98092;-77
2023/10/23 10:53:06;;;;;;;13.13;3.30;;;;;;;24.02;39.79;100141.09;4891630;28;101632;-75
2023/10/23 10:55:33;;;;;;;10.85;3.15;;;;;;;23.38;42.43;100156.69;4931269;28;96859;-77
2023/10/23 10:57:59;;;;;;;8.98;3.03;;;;;;;23.22;42.63;100165.28;4933348;28;97106;-77
2023/10/23 11:00:28;;;;;;;9.35;2.67;;;;;;;22.91;42.97;100160.91;4949590;28;97968;-78
2023/10/23 11:02:55;;;;;;;8.45;2.42;;;;;;;22.74;43.38;100154.38;4916576;28;101913;-76
2023/10/23 11:05:20;;;;;;;5.03;2.20;;;;;;;22.62;42.98;100150.94;4916925;28;97422;-77
2023/10/23 11:07:47;;;;;;;6.45;2.20;;;;;;;22.44;41.83;100155.22;4912719;28;97104;-77
2023/10/23 11:10:13;;;;;;;20.77;7.93;;;;;;;22.18;42.14;100114.69;4915120;28;99885;-77
2023/10/23 11:12:39;;;;;;;12.25;11.05;;;;;;;22.28;42.77;100151.19;4915117;28;101567;-77